Omaha, NE (68142)

8:55 AM CST on February 12, 2016 (GMT -0600)
Douglas County | | Change Station
CLOSE
Current Station
Personal Weather Station
Location: Omaha, NE
Elevation: 1132 ft
Nearby Weather Stations

Elev 1132 ft 41.34 °N, 96.11 °W | Updated 9 minutes ago

Overcast
Overcast
21.0 °F
Feels Like 21 °F
N
1.0
Wind Variable Wind from North
Gusts 10.0 mph

Today
High -- | Low -- °F
--% Chance of Precip.
Yesterday
High -- | Low -- °F
Precip. -- in
Pressure 30.40 in
Visibility 10.0 miles
Clouds Overcast 1100 ft
Windchill 21 °F
Dew Point 17 °F
Humidity 85%
Rainfall 0.00 in
Snow Depth Not available.
7:23 AM 5:54 PM
Waxing Crescent, 21% visible
METAR KBTA 121435Z AUTO 35009KT 10SM OVC011 M06/M08 A3040 RMK AO2 T10581080
Pressure 30.40 in
Visibility 10.0 miles
Clouds Overcast 1100 ft
Windchill 21 °F
Dew Point 17 °F
Humidity 85%
Rainfall 0.00 in
Snow Depth Not available.
7:23 AM 5:54 PM
Waxing Crescent, 21% visible
METAR KBTA 121435Z AUTO 35009KT 10SM OVC011 M06/M08 A3040 RMK AO2 T10581080

10-Day Weather Forecast

Almanac

Astronomy

Feb. 12, 2016 Rise Set
Actual Time
Civil Twilight
Nautical Twilight
Astronomical Twilight
Moon
Length of Visible Light
Length of Day
Tomorrow will be .
, % of the Moon is Illuminated

Today's Extremes

State Highs State Lows

Community

WunderPhotos

Upload Photos

1,892,318 photos uploaded!

WunderBlog® & News

Nearby

Air Quality

  Air Quality AQ Index Pollutant
Not available.

Snow Depth

Station Depth Elevation

Earthquake Activity

City Distance Mag. Time & Date
Minimum magnitude displayed is 2.5.

Coastal Water Temperatures

Place Temperature

Stations

Nearby Weather Stations

Station Location Temp. Windchill Dew Point Humidity Wind Precip. Elev Updated Type
                   

Watches & Warnings

There are currently no watches in effect.